New Harbor, Maine
Current Conditions -  °F | °C
As of 1:16 AM on Wednesday 22 Oct 2014 (Local Time) from KIWI Reporting Station
Light Rain Light Rain  
Wind Chill: 52°   Ceiling: 1000
Heat Index: 52°   Visibility: 7mi
Dew Point: 50°   Wind: 8mph
Humidity: 93%   Direction: 50°NE
Pressure: 30.09"   Gusts: NA
Location:  43.88°N, 69.49°W
Report Text: KIWI 220516Z AUTO 05007KT 020V090 7SM -RA OVC010 11/10 A3009 RMK AO2 CIG 006V014 P0000 T01110100
Loading
Personal Weather Stations






























Interactive Weather Map
Tropical Storm Tracking
New forecast layout! Learn more

10-Day Weather Forecast

Advertisements
Track Severe Weather on mobile